sensor_id;sensor_type;location;lat;lon;timestamp;P1;durP1;ratioP1;P2;durP2;ratioP2
36253;SDS011;22291;52.250;21.228;2023-07-31T00:00:51;84.90;;;79.70;;
36253;SDS011;22291;52.250;21.228;2023-07-31T00:03:22;85.57;;;80.28;;
36253;SDS011;22291;52.250;21.228;2023-07-31T00:05:48;86.65;;;80.83;;
36253;SDS011;22291;52.250;21.228;2023-07-31T00:08:14;86.20;;;80.77;;
36253;SDS011;22291;52.250;21.228;2023-07-31T00:10:40;88.15;;;81.92;;
36253;SDS011;22291;52.250;21.228;2023-07-31T00:13:06;92.08;;;86.25;;
36253;SDS011;22291;52.250;21.228;2023-07-31T00:15:32;88.33;;;82.57;;
36253;SDS011;22291;52.250;21.228;2023-07-31T00:17:58;87.90;;;82.22;;
36253;SDS011;22291;52.250;21.228;2023-07-31T00:32:27;7.72;;;6.10;;
36253;SDS011;22291;52.250;21.228;2023-07-31T00:34:53;8.50;;;6.22;;
36253;SDS011;22291;52.250;21.228;2023-07-31T00:37:19;7.28;;;5.50;;
36253;SDS011;22291;52.250;21.228;2023-07-31T00:39:45;38.95;;;36.38;;
36253;SDS011;22291;52.250;21.228;2023-07-31T00:42:12;85.28;;;80.17;;
36253;SDS011;22291;52.250;21.228;2023-07-31T00:44:38;59.42;;;55.73;;
36253;SDS011;22291;52.250;21.228;2023-07-31T00:47:04;66.87;;;62.73;;
36253;SDS011;22291;52.250;21.228;2023-07-31T00:49:32;83.45;;;78.50;;
36253;SDS011;22291;52.250;21.228;2023-07-31T00:51:59;13.43;;;12.80;;
36253;SDS011;22291;52.250;21.228;2023-07-31T00:54:25;61.90;;;58.00;;
36253;SDS011;22291;52.250;21.228;2023-07-31T00:56:52;83.78;;;78.80;;
36253;SDS011;22291;52.250;21.228;2023-07-31T00:59:20;79.80;;;74.95;;
36253;SDS011;22291;52.250;21.228;2023-07-31T01:01:46;81.75;;;76.87;;
36253;SDS011;22291;52.250;21.228;2023-07-31T01:04:15;83.05;;;78.05;;
36253;SDS011;22291;52.250;21.228;2023-07-31T01:07:02;79.90;;;75.05;;
36253;SDS011;22291;52.250;21.228;2023-07-31T01:09:44;8.75;;;5.10;;
36253;SDS011;22291;52.250;21.228;2023-07-31T01:12:21;87.78;;;82.33;;
36253;SDS011;22291;52.250;21.228;2023-07-31T01:17:19;84.42;;;79.15;;
36253;SDS011;22291;52.250;21.228;2023-07-31T01:19:45;86.55;;;81.32;;
36253;SDS011;22291;52.250;21.228;2023-07-31T01:22:31;87.78;;;82.40;;
36253;SDS011;22291;52.250;21.228;2023-07-31T01:28:11;86.82;;;81.47;;
36253;SDS011;22291;52.250;21.228;2023-07-31T01:30:41;85.32;;;80.22;;
36253;SDS011;22291;52.250;21.228;2023-07-31T01:33:11;87.70;;;82.40;;
36253;SDS011;22291;52.250;21.228;2023-07-31T01:35:38;87.85;;;82.10;;
36253;SDS011;22291;52.250;21.228;2023-07-31T01:38:08;35.65;;;33.40;;
36253;SDS011;22291;52.250;21.228;2023-07-31T01:40:34;10.65;;;4.00;;
36253;SDS011;22291;52.250;21.228;2023-07-31T01:43:00;86.92;;;81.67;;
36253;SDS011;22291;52.250;21.228;2023-07-31T01:45:26;50.00;;;46.92;;
36253;SDS011;22291;52.250;21.228;2023-07-31T01:47:53;7.67;;;6.10;;
36253;SDS011;22291;52.250;21.228;2023-07-31T01:50:19;4.65;;;4.22;;
36253;SDS011;22291;52.250;21.228;2023-07-31T01:52:47;5.37;;;4.40;;
36253;SDS011;22291;52.250;21.228;2023-07-31T01:55:13;87.27;;;81.90;;
36253;SDS011;22291;52.250;21.228;2023-07-31T01:57:40;89.20;;;83.58;;
36253;SDS011;22291;52.250;21.228;2023-07-31T02:00:07;89.37;;;83.90;;
36253;SDS011;22291;52.250;21.228;2023-07-31T02:02:33;86.97;;;81.60;;
36253;SDS011;22291;52.250;21.228;2023-07-31T02:04:59;86.63;;;81.08;;
36253;SDS011;22291;52.250;21.228;2023-07-31T02:07:26;95.97;;;90.17;;
36253;SDS011;22291;52.250;21.228;2023-07-31T02:09:52;86.57;;;81.22;;
36253;SDS011;22291;52.250;21.228;2023-07-31T02:12:19;86.05;;;80.67;;
36253;SDS011;22291;52.250;21.228;2023-07-31T02:14:46;85.85;;;79.77;;
36253;SDS011;22291;52.250;21.228;2023-07-31T02:17:12;84.55;;;78.78;;
36253;SDS011;22291;52.250;21.228;2023-07-31T02:19:38;79.22;;;74.42;;
36253;SDS011;22291;52.250;21.228;2023-07-31T02:22:04;4.35;;;3.27;;
36253;SDS011;22291;52.250;21.228;2023-07-31T02:24:30;5.05;;;4.05;;
36253;SDS011;22291;52.250;21.228;2023-07-31T02:26:57;5.83;;;5.30;;
36253;SDS011;22291;52.250;21.228;2023-07-31T02:29:23;8.73;;;7.33;;
36253;SDS011;22291;52.250;21.228;2023-07-31T02:31:49;9.08;;;7.67;;
36253;SDS011;22291;52.250;21.228;2023-07-31T02:34:16;7.03;;;6.40;;
36253;SDS011;22291;52.250;21.228;2023-07-31T02:36:42;10.50;;;9.48;;
36253;SDS011;22291;52.250;21.228;2023-07-31T02:39:08;86.53;;;81.28;;
36253;SDS011;22291;52.250;21.228;2023-07-31T02:41:34;87.20;;;81.78;;
36253;SDS011;22291;52.250;21.228;2023-07-31T02:44:00;87.22;;;81.85;;
36253;SDS011;22291;52.250;21.228;2023-07-31T02:46:27;87.20;;;81.78;;
36253;SDS011;22291;52.250;21.228;2023-07-31T02:48:53;90.42;;;84.83;;
36253;SDS011;22291;52.250;21.228;2023-07-31T02:51:19;87.65;;;82.35;;
36253;SDS011;22291;52.250;21.228;2023-07-31T02:53:47;85.22;;;80.15;;
36253;SDS011;22291;52.250;21.228;2023-07-31T02:56:15;84.62;;;79.35;;
36253;SDS011;22291;52.250;21.228;2023-07-31T02:58:41;84.03;;;78.83;;
36253;SDS011;22291;52.250;21.228;2023-07-31T03:01:07;87.62;;;82.37;;
36253;SDS011;22291;52.250;21.228;2023-07-31T03:03:33;85.85;;;80.75;;
36253;SDS011;22291;52.250;21.228;2023-07-31T03:06:00;87.27;;;81.75;;
36253;SDS011;22291;52.250;21.228;2023-07-31T03:08:26;84.90;;;79.70;;
36253;SDS011;22291;52.250;21.228;2023-07-31T03:10:52;85.67;;;80.28;;
36253;SDS011;22291;52.250;21.228;2023-07-31T03:13:18;85.38;;;79.67;;
36253;SDS011;22291;52.250;21.228;2023-07-31T03:15:45;87.22;;;81.70;;
36253;SDS011;22291;52.250;21.228;2023-07-31T03:18:11;86.70;;;81.28;;
36253;SDS011;22291;52.250;21.228;2023-07-31T03:20:37;87.30;;;81.78;;
36253;SDS011;22291;52.250;21.228;2023-07-31T03:23:09;85.22;;;80.10;;
36253;SDS011;22291;52.250;21.228;2023-07-31T03:25:35;86.35;;;80.77;;
36253;SDS011;22291;52.250;21.228;2023-07-31T03:28:02;87.75;;;82.15;;
36253;SDS011;22291;52.250;21.228;2023-07-31T03:30:29;84.37;;;79.05;;
36253;SDS011;22291;52.250;21.228;2023-07-31T03:32:55;86.50;;;81.05;;
36253;SDS011;22291;52.250;21.228;2023-07-31T03:35:22;88.62;;;83.03;;
36253;SDS011;22291;52.250;21.228;2023-07-31T03:37:48;84.13;;;78.85;;
36253;SDS011;22291;52.250;21.228;2023-07-31T03:40:15;84.15;;;78.87;;
36253;SDS011;22291;52.250;21.228;2023-07-31T03:42:41;85.45;;;80.25;;
36253;SDS011;22291;52.250;21.228;2023-07-31T03:45:09;87.67;;;81.92;;
36253;SDS011;22291;52.250;21.228;2023-07-31T03:47:36;83.25;;;78.28;;
36253;SDS011;22291;52.250;21.228;2023-07-31T03:50:02;85.28;;;80.10;;
36253;SDS011;22291;52.250;21.228;2023-07-31T03:52:29;84.80;;;79.75;;
36253;SDS011;22291;52.250;21.228;2023-07-31T03:54:55;87.03;;;81.63;;
36253;SDS011;22291;52.250;21.228;2023-07-31T03:57:23;87.37;;;81.70;;
36253;SDS011;22291;52.250;21.228;2023-07-31T03:59:49;85.07;;;79.85;;
36253;SDS011;22291;52.250;21.228;2023-07-31T04:02:15;83.87;;;78.67;;
36253;SDS011;22291;52.250;21.228;2023-07-31T04:04:43;26.25;;;24.20;;
36253;SDS011;22291;52.250;21.228;2023-07-31T04:07:09;14.58;;;12.45;;
36253;SDS011;22291;52.250;21.228;2023-07-31T04:09:36;14.98;;;13.55;;
36253;SDS011;22291;52.250;21.228;2023-07-31T04:12:02;40.35;;;37.83;;
36253;SDS011;22291;52.250;21.228;2023-07-31T04:14:29;84.92;;;79.50;;
36253;SDS011;22291;52.250;21.228;2023-07-31T04:16:55;82.42;;;77.37;;
36253;SDS011;22291;52.250;21.228;2023-07-31T04:19:21;83.05;;;77.90;;
36253;SDS011;22291;52.250;21.228;2023-07-31T04:21:47;84.83;;;79.63;;
36253;SDS011;22291;52.250;21.228;2023-07-31T04:24:13;86.25;;;80.97;;
36253;SDS011;22291;52.250;21.228;2023-07-31T04:26:40;86.32;;;80.97;;
36253;SDS011;22291;52.250;21.228;2023-07-31T04:29:06;88.35;;;82.97;;
36253;SDS011;22291;52.250;21.228;2023-07-31T04:31:33;82.57;;;77.53;;
36253;SDS011;22291;52.250;21.228;2023-07-31T04:34:00;85.35;;;80.00;;
36253;SDS011;22291;52.250;21.228;2023-07-31T04:36:26;87.02;;;81.65;;
36253;SDS011;22291;52.250;21.228;2023-07-31T04:38:52;82.25;;;77.30;;
36253;SDS011;22291;52.250;21.228;2023-07-31T04:41:18;84.75;;;79.72;;
36253;SDS011;22291;52.250;21.228;2023-07-31T04:43:44;84.30;;;79.03;;
36253;SDS011;22291;52.250;21.228;2023-07-31T04:46:10;88.22;;;82.65;;
36253;SDS011;22291;52.250;21.228;2023-07-31T04:48:36;85.40;;;78.37;;
36253;SDS011;22291;52.250;21.228;2023-07-31T04:51:03;86.67;;;80.92;;
36253;SDS011;22291;52.250;21.228;2023-07-31T04:53:29;84.45;;;79.12;;
36253;SDS011;22291;52.250;21.228;2023-07-31T04:55:55;84.30;;;79.32;;
36253;SDS011;22291;52.250;21.228;2023-07-31T04:58:21;86.15;;;81.05;;
36253;SDS011;22291;52.250;21.228;2023-07-31T05:00:47;85.17;;;79.47;;
36253;SDS011;22291;52.250;21.228;2023-07-31T05:03:13;87.80;;;82.33;;
36253;SDS011;22291;52.250;21.228;2023-07-31T05:05:40;83.22;;;77.95;;
36253;SDS011;22291;52.250;21.228;2023-07-31T05:08:06;30.82;;;28.35;;
36253;SDS011;22291;52.250;21.228;2023-07-31T05:10:32;11.45;;;8.15;;
36253;SDS011;22291;52.250;21.228;2023-07-31T05:12:58;10.63;;;9.53;;
36253;SDS011;22291;52.250;21.228;2023-07-31T05:15:24;20.00;;;18.07;;
36253;SDS011;22291;52.250;21.228;2023-07-31T05:17:50;18.73;;;17.07;;
36253;SDS011;22291;52.250;21.228;2023-07-31T05:20:16;43.23;;;40.45;;
36253;SDS011;22291;52.250;21.228;2023-07-31T05:22:43;82.90;;;77.42;;
36253;SDS011;22291;52.250;21.228;2023-07-31T05:25:09;87.00;;;81.65;;
36253;SDS011;22291;52.250;21.228;2023-07-31T05:27:35;87.08;;;81.57;;
36253;SDS011;22291;52.250;21.228;2023-07-31T05:30:01;89.85;;;84.32;;
36253;SDS011;22291;52.250;21.228;2023-07-31T05:32:29;85.40;;;79.75;;
36253;SDS011;22291;52.250;21.228;2023-07-31T05:34:55;85.75;;;80.25;;
36253;SDS011;22291;52.250;21.228;2023-07-31T05:37:22;84.47;;;79.35;;
36253;SDS011;22291;52.250;21.228;2023-07-31T05:39:49;18.23;;;16.65;;
36253;SDS011;22291;52.250;21.228;2023-07-31T05:42:16;15.08;;;13.53;;
36253;SDS011;22291;52.250;21.228;2023-07-31T05:44:42;15.15;;;13.70;;
36253;SDS011;22291;52.250;21.228;2023-07-31T05:47:09;16.60;;;15.10;;
36253;SDS011;22291;52.250;21.228;2023-07-31T05:49:35;14.55;;;13.30;;
36253;SDS011;22291;52.250;21.228;2023-07-31T05:52:01;19.73;;;18.32;;
36253;SDS011;22291;52.250;21.228;2023-07-31T05:54:28;20.43;;;18.62;;
36253;SDS011;22291;52.250;21.228;2023-07-31T05:56:54;22.95;;;20.75;;
36253;SDS011;22291;52.250;21.228;2023-07-31T05:59:20;63.50;;;59.42;;
36253;SDS011;22291;52.250;21.228;2023-07-31T06:01:46;64.25;;;60.38;;
36253;SDS011;22291;52.250;21.228;2023-07-31T06:04:12;46.33;;;43.45;;
36253;SDS011;22291;52.250;21.228;2023-07-31T06:06:39;85.50;;;80.50;;
36253;SDS011;22291;52.250;21.228;2023-07-31T06:09:05;88.22;;;82.82;;
36253;SDS011;22291;52.250;21.228;2023-07-31T06:11:32;86.00;;;80.97;;
36253;SDS011;22291;52.250;21.228;2023-07-31T06:13:59;29.57;;;27.58;;
36253;SDS011;22291;52.250;21.228;2023-07-31T06:16:25;75.87;;;71.12;;
36253;SDS011;22291;52.250;21.228;2023-07-31T06:18:52;85.65;;;80.32;;
36253;SDS011;22291;52.250;21.228;2023-07-31T06:21:18;82.90;;;77.62;;
36253;SDS011;22291;52.250;21.228;2023-07-31T06:23:44;84.58;;;79.40;;
36253;SDS011;22291;52.250;21.228;2023-07-31T06:26:11;35.25;;;32.65;;
36253;SDS011;22291;52.250;21.228;2023-07-31T06:28:37;83.58;;;78.47;;
36253;SDS011;22291;52.250;21.228;2023-07-31T06:31:03;85.77;;;80.67;;
36253;SDS011;22291;52.250;21.228;2023-07-31T06:33:29;81.92;;;76.82;;
36253;SDS011;22291;52.250;21.228;2023-07-31T06:35:55;85.12;;;80.05;;
36253;SDS011;22291;52.250;21.228;2023-07-31T06:38:23;84.35;;;79.40;;
36253;SDS011;22291;52.250;21.228;2023-07-31T06:40:52;82.70;;;77.58;;
36253;SDS011;22291;52.250;21.228;2023-07-31T06:43:19;30.08;;;27.55;;
36253;SDS011;22291;52.250;21.228;2023-07-31T06:45:45;7.33;;;5.30;;
36253;SDS011;22291;52.250;21.228;2023-07-31T06:48:12;12.73;;;7.12;;
36253;SDS011;22291;52.250;21.228;2023-07-31T06:50:38;12.60;;;11.60;;
36253;SDS011;22291;52.250;21.228;2023-07-31T06:53:04;53.63;;;50.50;;
36253;SDS011;22291;52.250;21.228;2023-07-31T06:55:30;83.40;;;78.45;;
36253;SDS011;22291;52.250;21.228;2023-07-31T06:57:56;82.95;;;78.02;;
36253;SDS011;22291;52.250;21.228;2023-07-31T07:00:23;83.90;;;78.92;;
36253;SDS011;22291;52.250;21.228;2023-07-31T07:02:49;86.28;;;80.17;;
36253;SDS011;22291;52.250;21.228;2023-07-31T07:05:17;82.25;;;77.37;;
36253;SDS011;22291;52.250;21.228;2023-07-31T07:07:44;83.45;;;78.52;;
36253;SDS011;22291;52.250;21.228;2023-07-31T07:10:10;85.10;;;79.85;;
36253;SDS011;22291;52.250;21.228;2023-07-31T07:12:37;65.95;;;61.80;;
36253;SDS011;22291;52.250;21.228;2023-07-31T07:15:03;13.90;;;12.30;;
36253;SDS011;22291;52.250;21.228;2023-07-31T07:17:31;12.03;;;8.63;;
36253;SDS011;22291;52.250;21.228;2023-07-31T07:19:58;12.10;;;10.95;;
36253;SDS011;22291;52.250;21.228;2023-07-31T07:22:25;13.10;;;11.97;;
36253;SDS011;22291;52.250;21.228;2023-07-31T07:24:53;83.85;;;78.83;;
36253;SDS011;22291;52.250;21.228;2023-07-31T07:27:19;85.85;;;80.38;;
36253;SDS011;22291;52.250;21.228;2023-07-31T07:29:45;83.50;;;78.52;;
36253;SDS011;22291;52.250;21.228;2023-07-31T07:32:12;86.72;;;81.10;;
36253;SDS011;22291;52.250;21.228;2023-07-31T07:34:39;82.17;;;77.22;;
36253;SDS011;22291;52.250;21.228;2023-07-31T07:37:05;84.92;;;79.72;;
36253;SDS011;22291;52.250;21.228;2023-07-31T07:39:32;82.82;;;77.87;;
36253;SDS011;22291;52.250;21.228;2023-07-31T07:41:58;26.23;;;24.15;;
36253;SDS011;22291;52.250;21.228;2023-07-31T07:44:24;19.23;;;17.67;;
36253;SDS011;22291;52.250;21.228;2023-07-31T07:46:50;84.05;;;78.83;;
36253;SDS011;22291;52.250;21.228;2023-07-31T07:49:16;85.62;;;80.20;;
36253;SDS011;22291;52.250;21.228;2023-07-31T07:51:43;85.35;;;79.85;;
36253;SDS011;22291;52.250;21.228;2023-07-31T07:54:09;81.00;;;76.30;;
36253;SDS011;22291;52.250;21.228;2023-07-31T07:56:35;82.95;;;77.53;;
36253;SDS011;22291;52.250;21.228;2023-07-31T07:59:02;82.00;;;77.10;;
36253;SDS011;22291;52.250;21.228;2023-07-31T08:01:28;80.85;;;76.02;;
36253;SDS011;22291;52.250;21.228;2023-07-31T08:03:54;80.85;;;76.07;;
36253;SDS011;22291;52.250;21.228;2023-07-31T08:06:20;82.65;;;77.58;;
36253;SDS011;22291;52.250;21.228;2023-07-31T08:08:48;78.20;;;73.75;;
36253;SDS011;22291;52.250;21.228;2023-07-31T08:11:14;80.05;;;75.45;;
36253;SDS011;22291;52.250;21.228;2023-07-31T08:13:41;77.40;;;72.55;;
36253;SDS011;22291;52.250;21.228;2023-07-31T08:16:07;81.45;;;76.75;;
36253;SDS011;22291;52.250;21.228;2023-07-31T08:18:35;79.90;;;75.08;;
36253;SDS011;22291;52.250;21.228;2023-07-31T08:21:02;77.78;;;73.33;;
36253;SDS011;22291;52.250;21.228;2023-07-31T08:23:28;81.05;;;75.97;;
36253;SDS011;22291;52.250;21.228;2023-07-31T08:25:55;83.15;;;77.87;;
36253;SDS011;22291;52.250;21.228;2023-07-31T08:28:21;77.08;;;72.58;;
36253;SDS011;22291;52.250;21.228;2023-07-31T08:30:47;79.95;;;74.90;;
36253;SDS011;22291;52.250;21.228;2023-07-31T08:33:15;80.15;;;75.37;;
36253;SDS011;22291;52.250;21.228;2023-07-31T08:35:42;75.00;;;70.72;;
36253;SDS011;22291;52.250;21.228;2023-07-31T08:38:08;76.57;;;72.25;;
36253;SDS011;22291;52.250;21.228;2023-07-31T08:40:37;77.47;;;73.00;;
36253;SDS011;22291;52.250;21.228;2023-07-31T08:43:04;77.47;;;73.10;;
36253;SDS011;22291;52.250;21.228;2023-07-31T08:45:30;83.95;;;79.00;;
36253;SDS011;22291;52.250;21.228;2023-07-31T08:47:58;80.65;;;76.15;;
36253;SDS011;22291;52.250;21.228;2023-07-31T08:50:26;77.58;;;73.05;;
36253;SDS011;22291;52.250;21.228;2023-07-31T08:52:53;76.25;;;71.75;;
36253;SDS011;22291;52.250;21.228;2023-07-31T08:55:20;75.95;;;71.42;;
36253;SDS011;22291;52.250;21.228;2023-07-31T08:57:48;76.02;;;71.33;;
36253;SDS011;22291;52.250;21.228;2023-07-31T09:02:46;74.10;;;69.85;;
36253;SDS011;22291;52.250;21.228;2023-07-31T09:05:29;77.47;;;73.00;;
36253;SDS011;22291;52.250;21.228;2023-07-31T09:07:57;75.83;;;71.37;;
36253;SDS011;22291;52.250;21.228;2023-07-31T09:10:24;72.70;;;68.62;;
36253;SDS011;22291;52.250;21.228;2023-07-31T09:12:51;74.75;;;70.65;;
36253;SDS011;22291;52.250;21.228;2023-07-31T09:15:18;74.35;;;70.28;;
36253;SDS011;22291;52.250;21.228;2023-07-31T09:17:45;74.90;;;70.72;;
36253;SDS011;22291;52.250;21.228;2023-07-31T09:20:20;74.90;;;70.67;;
36253;SDS011;22291;52.250;21.228;2023-07-31T09:22:50;74.35;;;70.05;;
36253;SDS011;22291;52.250;21.228;2023-07-31T09:25:18;72.15;;;68.05;;
36253;SDS011;22291;52.250;21.228;2023-07-31T09:30:47;69.85;;;65.92;;
36253;SDS011;22291;52.250;21.228;2023-07-31T09:33:16;74.03;;;69.85;;
36253;SDS011;22291;52.250;21.228;2023-07-31T09:35:44;42.05;;;39.60;;
36253;SDS011;22291;52.250;21.228;2023-07-31T09:38:12;64.85;;;61.35;;
36253;SDS011;22291;52.250;21.228;2023-07-31T09:40:41;71.62;;;67.65;;
36253;SDS011;22291;52.250;21.228;2023-07-31T09:43:14;69.90;;;66.10;;
36253;SDS011;22291;52.250;21.228;2023-07-31T09:45:46;51.92;;;48.92;;
36253;SDS011;22291;52.250;21.228;2023-07-31T09:48:16;67.95;;;64.10;;
36253;SDS011;22291;52.250;21.228;2023-07-31T09:50:45;72.72;;;68.75;;
36253;SDS011;22291;52.250;21.228;2023-07-31T09:53:15;70.97;;;67.25;;
36253;SDS011;22291;52.250;21.228;2023-07-31T09:55:42;70.30;;;66.22;;
36253;SDS011;22291;52.250;21.228;2023-07-31T09:58:10;72.58;;;68.37;;
36253;SDS011;22291;52.250;21.228;2023-07-31T10:00:38;72.27;;;68.17;;
36253;SDS011;22291;52.250;21.228;2023-07-31T10:03:06;71.47;;;67.50;;
36253;SDS011;22291;52.250;21.228;2023-07-31T10:05:36;70.20;;;66.37;;
36253;SDS011;22291;52.250;21.228;2023-07-31T10:08:15;72.00;;;67.95;;
36253;SDS011;22291;52.250;21.228;2023-07-31T10:10:44;71.35;;;67.55;;
36253;SDS011;22291;52.250;21.228;2023-07-31T10:13:12;70.60;;;66.72;;
36253;SDS011;22291;52.250;21.228;2023-07-31T10:15:40;68.60;;;65.00;;
36253;SDS011;22291;52.250;21.228;2023-07-31T10:18:09;50.45;;;47.67;;
36253;SDS011;22291;52.250;21.228;2023-07-31T10:20:39;49.45;;;46.83;;
36253;SDS011;22291;52.250;21.228;2023-07-31T10:23:07;93.12;;;86.82;;
36253;SDS011;22291;52.250;21.228;2023-07-31T10:25:38;50.23;;;47.20;;
36253;SDS011;22291;52.250;21.228;2023-07-31T10:28:05;70.83;;;66.82;;
36253;SDS011;22291;52.250;21.228;2023-07-31T10:30:32;47.33;;;44.83;;
36253;SDS011;22291;52.250;21.228;2023-07-31T10:35:28;72.70;;;68.57;;
36253;SDS011;22291;52.250;21.228;2023-07-31T10:37:55;74.30;;;69.97;;
36253;SDS011;22291;52.250;21.228;2023-07-31T10:40:25;35.10;;;33.10;;
36253;SDS011;22291;52.250;21.228;2023-07-31T10:42:54;53.80;;;50.83;;
36253;SDS011;22291;52.250;21.228;2023-07-31T10:48:04;69.87;;;65.70;;
36253;SDS011;22291;52.250;21.228;2023-07-31T10:50:37;70.90;;;67.20;;
36253;SDS011;22291;52.250;21.228;2023-07-31T10:53:05;58.28;;;54.95;;
36253;SDS011;22291;52.250;21.228;2023-07-31T10:55:40;46.90;;;44.48;;
36253;SDS011;22291;52.250;21.228;2023-07-31T10:58:10;70.65;;;66.90;;
36253;SDS011;22291;52.250;21.228;2023-07-31T11:00:39;70.00;;;66.30;;
36253;SDS011;22291;52.250;21.228;2023-07-31T11:03:09;69.10;;;65.20;;
36253;SDS011;22291;52.250;21.228;2023-07-31T11:09:48;6.55;;;2.17;;
36253;SDS011;22291;52.250;21.228;2023-07-31T11:12:15;2.35;;;1.45;;
36253;SDS011;22291;52.250;21.228;2023-07-31T11:14:43;3.02;;;1.65;;
36253;SDS011;22291;52.250;21.228;2023-07-31T11:17:09;3.12;;;1.42;;
36253;SDS011;22291;52.250;21.228;2023-07-31T11:19:36;4.15;;;1.90;;
36253;SDS011;22291;52.250;21.228;2023-07-31T11:22:04;2.80;;;1.97;;
36253;SDS011;22291;52.250;21.228;2023-07-31T11:24:32;4.33;;;1.60;;
36253;SDS011;22291;52.250;21.228;2023-07-31T11:27:00;5.25;;;1.77;;
36253;SDS011;22291;52.250;21.228;2023-07-31T11:29:32;4.97;;;1.45;;
36253;SDS011;22291;52.250;21.228;2023-07-31T11:31:59;2.72;;;1.37;;
36253;SDS011;22291;52.250;21.228;2023-07-31T11:34:25;3.58;;;1.60;;
36253;SDS011;22291;52.250;21.228;2023-07-31T11:36:54;5.58;;;1.75;;
36253;SDS011;22291;52.250;21.228;2023-07-31T11:39:22;2.60;;;1.62;;
36253;SDS011;22291;52.250;21.228;2023-07-31T11:41:48;3.37;;;1.52;;
36253;SDS011;22291;52.250;21.228;2023-07-31T11:44:14;4.10;;;1.45;;
36253;SDS011;22291;52.250;21.228;2023-07-31T11:46:40;3.15;;;1.27;;
36253;SDS011;22291;52.250;21.228;2023-07-31T11:49:07;4.92;;;1.27;;
36253;SDS011;22291;52.250;21.228;2023-07-31T11:51:36;3.37;;;1.82;;
36253;SDS011;22291;52.250;21.228;2023-07-31T11:54:07;8.35;;;5.05;;
36253;SDS011;22291;52.250;21.228;2023-07-31T11:56:37;4.85;;;1.52;;
36253;SDS011;22291;52.250;21.228;2023-07-31T12:01:33;8.15;;;3.40;;
36253;SDS011;22291;52.250;21.228;2023-07-31T12:04:03;4.65;;;1.65;;
36253;SDS011;22291;52.250;21.228;2023-07-31T12:06:33;5.60;;;1.50;;
36253;SDS011;22291;52.250;21.228;2023-07-31T12:09:03;3.67;;;1.52;;
36253;SDS011;22291;52.250;21.228;2023-07-31T12:16:56;5.20;;;2.17;;
36253;SDS011;22291;52.250;21.228;2023-07-31T12:19:28;6.33;;;1.37;;
36253;SDS011;22291;52.250;21.228;2023-07-31T12:21:56;1.75;;;1.20;;
36253;SDS011;22291;52.250;21.228;2023-07-31T12:24:27;5.00;;;1.50;;
36253;SDS011;22291;52.250;21.228;2023-07-31T12:26:54;8.33;;;7.50;;
36253;SDS011;22291;52.250;21.228;2023-07-31T12:29:22;3.83;;;1.27;;
36253;SDS011;22291;52.250;21.228;2023-07-31T12:31:50;4.08;;;1.57;;
36253;SDS011;22291;52.250;21.228;2023-07-31T12:34:17;3.10;;;1.40;;
36253;SDS011;22291;52.250;21.228;2023-07-31T12:36:47;3.67;;;1.67;;
36253;SDS011;22291;52.250;21.228;2023-07-31T12:39:15;3.40;;;1.30;;
36253;SDS011;22291;52.250;21.228;2023-07-31T12:41:41;4.72;;;1.60;;
36253;SDS011;22291;52.250;21.228;2023-07-31T12:44:07;4.37;;;1.40;;
36253;SDS011;22291;52.250;21.228;2023-07-31T12:46:39;3.40;;;1.30;;
36253;SDS011;22291;52.250;21.228;2023-07-31T12:49:05;4.78;;;1.72;;
36253;SDS011;22291;52.250;21.228;2023-07-31T12:51:32;2.02;;;1.60;;
36253;SDS011;22291;52.250;21.228;2023-07-31T12:53:59;5.12;;;1.57;;
36253;SDS011;22291;52.250;21.228;2023-07-31T12:56:25;3.80;;;1.45;;
36253;SDS011;22291;52.250;21.228;2023-07-31T12:58:51;9.55;;;1.65;;
36253;SDS011;22291;52.250;21.228;2023-07-31T13:01:19;5.58;;;1.75;;
36253;SDS011;22291;52.250;21.228;2023-07-31T13:03:45;4.50;;;2.00;;
36253;SDS011;22291;52.250;21.228;2023-07-31T13:06:12;2.62;;;2.05;;
36253;SDS011;22291;52.250;21.228;2023-07-31T13:08:42;6.03;;;2.05;;
36253;SDS011;22291;52.250;21.228;2023-07-31T13:11:13;6.85;;;1.50;;
36253;SDS011;22291;52.250;21.228;2023-07-31T13:13:45;3.12;;;1.60;;
36253;SDS011;22291;52.250;21.228;2023-07-31T13:16:11;3.17;;;1.55;;
36253;SDS011;22291;52.250;21.228;2023-07-31T13:18:42;4.92;;;1.70;;
36253;SDS011;22291;52.250;21.228;2023-07-31T13:21:09;2.77;;;1.80;;
36253;SDS011;22291;52.250;21.228;2023-07-31T13:23:36;3.77;;;1.95;;
36253;SDS011;22291;52.250;21.228;2023-07-31T13:26:02;2.17;;;1.40;;
36253;SDS011;22291;52.250;21.228;2023-07-31T13:28:28;2.62;;;1.72;;
36253;SDS011;22291;52.250;21.228;2023-07-31T13:30:54;6.42;;;1.60;;
36253;SDS011;22291;52.250;21.228;2023-07-31T13:33:20;3.77;;;1.60;;
36253;SDS011;22291;52.250;21.228;2023-07-31T13:35:47;9.43;;;2.02;;
36253;SDS011;22291;52.250;21.228;2023-07-31T13:38:15;7.20;;;1.80;;
36253;SDS011;22291;52.250;21.228;2023-07-31T13:40:41;5.15;;;1.32;;
36253;SDS011;22291;52.250;21.228;2023-07-31T13:43:07;5.17;;;3.05;;
36253;SDS011;22291;52.250;21.228;2023-07-31T13:45:33;7.20;;;1.80;;
36253;SDS011;22291;52.250;21.228;2023-07-31T13:48:02;4.33;;;2.03;;
36253;SDS011;22291;52.250;21.228;2023-07-31T13:50:30;4.17;;;2.33;;
36253;SDS011;22291;52.250;21.228;2023-07-31T13:52:57;4.90;;;2.30;;
36253;SDS011;22291;52.250;21.228;2023-07-31T13:55:23;5.05;;;3.17;;
36253;SDS011;22291;52.250;21.228;2023-07-31T13:57:49;6.47;;;3.22;;
36253;SDS011;22291;52.250;21.228;2023-07-31T14:00:16;8.93;;;5.03;;
36253;SDS011;22291;52.250;21.228;2023-07-31T14:02:42;13.78;;;9.63;;
36253;SDS011;22291;52.250;21.228;2023-07-31T14:05:09;5.90;;;3.70;;
36253;SDS011;22291;52.250;21.228;2023-07-31T14:07:40;7.22;;;3.77;;
36253;SDS011;22291;52.250;21.228;2023-07-31T14:13:10;10.15;;;4.67;;
36253;SDS011;22291;52.250;21.228;2023-07-31T14:15:36;26.00;;;5.47;;
36253;SDS011;22291;52.250;21.228;2023-07-31T14:18:03;16.35;;;9.38;;
36253;SDS011;22291;52.250;21.228;2023-07-31T14:20:29;13.85;;;9.23;;
36253;SDS011;22291;52.250;21.228;2023-07-31T14:22:56;11.73;;;7.40;;
36253;SDS011;22291;52.250;21.228;2023-07-31T14:25:22;12.05;;;6.22;;
36253;SDS011;22291;52.250;21.228;2023-07-31T14:27:49;7.72;;;4.72;;
36253;SDS011;22291;52.250;21.228;2023-07-31T14:30:15;5.65;;;3.72;;
36253;SDS011;22291;52.250;21.228;2023-07-31T14:32:42;5.30;;;3.40;;
36253;SDS011;22291;52.250;21.228;2023-07-31T14:35:08;12.40;;;6.08;;
36253;SDS011;22291;52.250;21.228;2023-07-31T14:37:42;13.55;;;6.28;;
36253;SDS011;22291;52.250;21.228;2023-07-31T14:40:11;12.23;;;7.60;;
36253;SDS011;22291;52.250;21.228;2023-07-31T14:42:39;12.15;;;7.25;;
36253;SDS011;22291;52.250;21.228;2023-07-31T14:45:06;11.05;;;7.15;;
36253;SDS011;22291;52.250;21.228;2023-07-31T14:50:02;12.05;;;7.05;;
36253;SDS011;22291;52.250;21.228;2023-07-31T14:52:29;11.00;;;6.62;;
36253;SDS011;22291;52.250;21.228;2023-07-31T14:54:56;13.98;;;6.83;;
36253;SDS011;22291;52.250;21.228;2023-07-31T14:57:22;13.32;;;7.70;;
36253;SDS011;22291;52.250;21.228;2023-07-31T14:59:48;16.20;;;7.65;;
36253;SDS011;22291;52.250;21.228;2023-07-31T15:02:15;8.98;;;5.05;;